Time;durP1;ratioP1;P1;durP2;ratioP2;P2;SDS_P1;SDS_P2;PMS_P1;PMS_P2;Temp;Humidity;BMP_temperature;BMP_pressure;BME280_temperature;BME280_humidity;BME280_pressure;Samples;Min_cycle;Max_cycle;Signal;HPM_P1;HPM_P2
2024/01/19 00:00:57;;;;;;;24.93;18.43;;;0.10;99.90;;;;;;5061749;28;20455;-75
2024/01/19 00:03:24;;;;;;;17.60;14.02;;;0.10;99.90;;;;;;5049014;28;20445;-76
2024/01/19 00:05:51;;;;;;;28.60;17.03;;;0.10;99.90;;;;;;5061657;28;20208;-78
2024/01/19 00:08:18;;;;;;;24.20;17.33;;;0.10;99.90;;;;;;5066982;28;20483;-74
2024/01/19 00:10:46;;;;;;;24.37;16.67;;;0.00;99.90;;;;;;5064787;28;20456;-74
2024/01/19 00:13:13;;;;;;;21.83;15.30;;;0.00;99.90;;;;;;5067823;28;20455;-75
2024/01/19 00:15:40;;;;;;;22.33;16.10;;;0.10;99.90;;;;;;5060935;28;21018;-74
2024/01/19 00:18:07;;;;;;;20.77;15.67;;;0.10;99.90;;;;;;5053844;28;20465;-75
2024/01/19 00:20:34;;;;;;;23.40;15.73;;;0.10;99.90;;;;;;5067555;28;20789;-73
2024/01/19 00:23:01;;;;;;;18.77;13.30;;;0.10;99.90;;;;;;5067351;28;20464;-76
2024/01/19 00:25:28;;;;;;;19.10;14.60;;;0.10;99.90;;;;;;5060642;28;20441;-74
2024/01/19 00:27:56;;;;;;;21.80;14.40;;;0.10;99.90;;;;;;5063451;28;20507;-77
2024/01/19 00:30:23;;;;;;;17.77;14.13;;;0.10;99.90;;;;;;5059156;28;20861;-75
2024/01/19 00:32:50;;;;;;;22.40;15.37;;;0.10;99.90;;;;;;5062390;28;20456;-76
2024/01/19 00:35:17;;;;;;;17.57;13.80;;;0.10;99.90;;;;;;5062543;28;20790;-77
2024/01/19 00:37:44;;;;;;;20.13;14.70;;;0.10;99.90;;;;;;5066773;28;20556;-77
2024/01/19 00:40:12;;;;;;;21.97;15.03;;;0.10;99.90;;;;;;5065503;28;20448;-74
2024/01/19 00:42:41;;;;;;;27.57;15.97;;;0.10;99.90;;;;;;5058137;28;20452;-77
2024/01/19 00:45:10;;;;;;;19.60;14.13;;;0.10;99.90;;;;;;5056453;28;20506;-78
2024/01/19 00:47:37;;;;;;;24.73;15.53;;;0.10;99.90;;;;;;5068146;28;20586;-76
2024/01/19 00:50:07;;;;;;;20.47;13.63;;;0.10;99.90;;;;;;5056406;28;20484;-78
2024/01/19 00:52:34;;;;;;;19.57;13.70;;;0.10;99.90;;;;;;5058975;28;20463;-75
2024/01/19 00:55:01;;;;;;;19.70;14.70;;;0.20;99.90;;;;;;5061580;28;20476;-74
2024/01/19 00:57:28;;;;;;;20.00;15.13;;;0.20;99.90;;;;;;5051715;28;20511;-74
2024/01/19 00:59:55;;;;;;;16.77;13.70;;;0.20;99.90;;;;;;5061106;28;20525;-78
2024/01/19 01:02:27;;;;;;;22.43;14.30;;;0.20;99.90;;;;;;5061763;28;21058;-76
2024/01/19 01:04:54;;;;;;;17.77;13.20;;;0.20;99.90;;;;;;5057617;28;20528;-75
2024/01/19 01:07:21;;;;;;;16.53;12.70;;;0.20;99.90;;;;;;5065944;28;20512;-78
2024/01/19 01:09:48;;;;;;;22.17;15.07;;;0.30;99.90;;;;;;5065705;28;20772;-78
2024/01/19 01:12:16;;;;;;;20.63;13.97;;;0.30;99.90;;;;;;5060565;28;20461;-76
2024/01/19 01:14:43;;;;;;;21.53;16.23;;;0.30;99.90;;;;;;5055801;28;20550;-74
2024/01/19 01:17:10;;;;;;;18.73;14.70;;;0.30;99.90;;;;;;5057306;28;20531;-75
2024/01/19 01:19:38;;;;;;;20.77;15.20;;;0.30;99.90;;;;;;5061943;28;20468;-78
2024/01/19 01:22:06;;;;;;;20.17;16.10;;;0.30;99.90;;;;;;5055682;28;20513;-73
2024/01/19 01:24:33;;;;;;;19.70;14.97;;;0.30;99.90;;;;;;5055125;28;21021;-74
2024/01/19 01:27:00;;;;;;;18.37;13.33;;;0.30;99.90;;;;;;5055842;28;20495;-74
2024/01/19 01:29:27;;;;;;;17.23;9.70;;;0.30;99.90;;;;;;5063339;28;21011;-77
2024/01/19 01:31:54;;;;;;;17.00;12.97;;;0.20;99.90;;;;;;5060781;28;20448;-76
2024/01/19 01:34:21;;;;;;;14.03;9.10;;;0.10;99.90;;;;;;5062782;28;20525;-76
2024/01/19 01:36:49;;;;;;;12.33;8.20;;;0.10;99.90;;;;;;5058517;28;20506;-75
2024/01/19 01:39:17;;;;;;;12.90;7.33;;;0.10;99.90;;;;;;5066243;28;20513;-75
2024/01/19 01:41:44;;;;;;;12.20;9.00;;;0.10;99.90;;;;;;5060463;28;20441;-75
2024/01/19 01:44:12;;;;;;;11.17;8.23;;;0.10;99.90;;;;;;5057439;28;20501;-74
2024/01/19 01:46:38;;;;;;;7.97;7.03;;;0.00;99.90;;;;;;5050387;28;20456;-76
2024/01/19 01:49:06;;;;;;;6.53;5.93;;;-0.20;99.90;;;;;;5055197;28;20840;-77
2024/01/19 01:51:34;;;;;;;5.83;4.67;;;-0.30;99.90;;;;;;5051315;28;20543;-74
2024/01/19 01:54:05;;;;;;;7.07;5.30;;;-0.30;99.90;;;;;;5048268;28;20445;-75
2024/01/19 01:56:32;;;;;;;5.97;5.03;;;-0.30;99.90;;;;;;5059627;28;20493;-77
2024/01/19 01:58:59;;;;;;;4.97;3.77;;;-0.40;99.90;;;;;;5060623;28;20541;-76
2024/01/19 02:01:26;;;;;;;8.30;4.17;;;-0.40;99.90;;;;;;5067249;28;20447;-76
2024/01/19 02:03:56;;;;;;;5.13;4.20;;;-0.50;99.90;;;;;;5056448;28;20445;-75
2024/01/19 02:06:22;;;;;;;7.80;4.30;;;-0.50;99.90;;;;;;5061673;28;20469;-74
2024/01/19 02:08:49;;;;;;;5.33;4.00;;;-0.50;99.90;;;;;;5066053;28;20476;-74
2024/01/19 02:11:18;;;;;;;6.53;3.93;;;-0.50;99.90;;;;;;5062528;28;20918;-75
2024/01/19 02:13:45;;;;;;;4.13;3.23;;;-0.50;99.90;;;;;;5063527;28;20463;-74
2024/01/19 02:16:12;;;;;;;4.03;3.50;;;-0.50;99.90;;;;;;5050623;28;20436;-74
2024/01/19 02:18:38;;;;;;;4.13;3.47;;;-0.60;99.90;;;;;;5060347;28;20830;-75
2024/01/19 02:21:06;;;;;;;3.77;3.43;;;-0.50;99.90;;;;;;5060936;28;20513;-75
2024/01/19 02:23:40;;;;;;;4.33;3.30;;;-0.50;99.90;;;;;;5065999;28;20890;-75
2024/01/19 02:26:08;;;;;;;5.43;3.37;;;-0.60;99.90;;;;;;5067810;28;20509;-75
2024/01/19 02:28:35;;;;;;;4.80;3.40;;;-0.60;99.90;;;;;;5061977;28;20496;-76
2024/01/19 02:31:02;;;;;;;4.43;2.73;;;-0.60;99.90;;;;;;5060970;28;20286;-76
2024/01/19 02:33:29;;;;;;;5.13;4.13;;;-0.60;99.90;;;;;;5064260;28;20457;-76
2024/01/19 02:35:56;;;;;;;6.80;3.30;;;-0.60;99.90;;;;;;5064218;28;20444;-75
2024/01/19 02:38:23;;;;;;;5.22;3.63;;;-0.70;99.90;;;;;;5056113;28;20517;-76
2024/01/19 02:40:50;;;;;;;4.23;2.90;;;-0.80;99.90;;;;;;5064404;28;20259;-75
2024/01/19 02:43:18;;;;;;;4.47;3.50;;;-0.80;99.90;;;;;;5062094;28;20444;-76
2024/01/19 02:45:45;;;;;;;4.30;3.70;;;-0.80;99.90;;;;;;5047186;28;20444;-76
2024/01/19 02:48:12;;;;;;;5.72;3.25;;;-0.70;99.90;;;;;;5057224;28;20533;-77
2024/01/19 02:50:39;;;;;;;5.03;3.58;;;-0.70;99.90;;;;;;5055805;28;20206;-75
2024/01/19 02:53:06;;;;;;;6.07;3.92;;;-0.70;99.90;;;;;;5046717;28;20275;-74
2024/01/19 02:55:33;;;;;;;4.68;4.00;;;-0.70;99.90;;;;;;5055811;28;20194;-74
2024/01/19 02:58:00;;;;;;;3.60;3.20;;;-0.80;99.90;;;;;;5054257;28;20258;-75
2024/01/19 03:00:29;;;;;;;4.87;3.07;;;-0.80;99.90;;;;;;5060318;28;20211;-74
2024/01/19 03:02:56;;;;;;;6.40;3.13;;;-0.90;99.90;;;;;;5073948;28;20452;-75
2024/01/19 03:05:23;;;;;;;9.07;4.90;;;-0.90;99.90;;;;;;5057862;28;20497;-76
2024/01/19 03:07:50;;;;;;;11.60;3.50;;;-0.90;99.90;;;;;;5054027;28;20534;-74
2024/01/19 03:10:17;;;;;;;6.30;4.70;;;-0.90;99.90;;;;;;5060354;28;20436;-75
2024/01/19 03:12:44;;;;;;;5.60;4.70;;;-0.90;99.90;;;;;;5047443;28;20541;-74
2024/01/19 03:15:11;;;;;;;5.93;3.92;;;-0.80;99.90;;;;;;5063335;28;20493;-77
2024/01/19 03:17:40;;;;;;;4.70;3.23;;;-0.80;99.90;;;;;;5048757;28;20198;-77
2024/01/19 03:20:08;;;;;;;6.60;4.37;;;-0.80;99.90;;;;;;5060185;28;20537;-75
2024/01/19 03:22:35;;;;;;;5.43;4.57;;;-0.80;99.90;;;;;;5066173;28;20925;-75
2024/01/19 03:25:02;;;;;;;7.07;5.50;;;-0.80;99.90;;;;;;5058212;28;21033;-78
2024/01/19 03:27:29;;;;;;;7.57;4.73;;;-0.80;99.90;;;;;;5061248;28;20973;-75
2024/01/19 03:29:56;;;;;;;6.67;5.63;;;-0.80;99.90;;;;;;5061312;28;21203;-77
2024/01/19 03:32:23;;;;;;;7.25;5.10;;;-0.80;99.90;;;;;;5063132;28;20537;-76
2024/01/19 03:34:51;;;;;;;9.50;4.40;;;-0.90;99.90;;;;;;5061275;28;20209;-75
2024/01/19 03:37:20;;;;;;;16.38;5.28;;;-0.90;99.90;;;;;;5060223;28;20197;-75
2024/01/19 03:39:47;;;;;;;6.28;4.35;;;-0.90;99.90;;;;;;5060292;28;20689;-75
2024/01/19 03:42:14;;;;;;;11.10;5.72;;;-1.00;99.90;;;;;;5056264;28;20232;-75
2024/01/19 03:44:41;;;;;;;6.32;4.50;;;-0.90;99.90;;;;;;5055714;28;20201;-74
2024/01/19 03:47:08;;;;;;;8.07;5.00;;;-0.90;99.90;;;;;;5060309;28;20201;-73
2024/01/19 03:49:35;;;;;;;9.55;4.20;;;-0.90;99.90;;;;;;5064419;28;20639;-75
2024/01/19 03:52:05;;;;;;;8.90;4.93;;;-1.00;99.90;;;;;;5057788;28;20202;-77
2024/01/19 03:54:33;;;;;;;9.57;4.97;;;-1.00;99.90;;;;;;5057285;28;20502;-76
2024/01/19 03:57:02;;;;;;;5.10;4.20;;;-1.10;99.90;;;;;;5056206;28;20456;-75
2024/01/19 03:59:28;;;;;;;7.35;5.40;;;-1.00;99.90;;;;;;5060466;28;20208;-75
2024/01/19 04:01:56;;;;;;;5.77;4.17;;;-1.00;99.90;;;;;;5056294;28;20594;-77
2024/01/19 04:04:23;;;;;;;5.83;3.40;;;-1.00;99.90;;;;;;5058535;28;20860;-74
2024/01/19 04:06:52;;;;;;;7.83;5.07;;;-1.10;99.90;;;;;;5061619;28;21007;-76
2024/01/19 04:09:20;;;;;;;5.88;5.05;;;-1.00;99.90;;;;;;5055429;28;20493;-75
2024/01/19 04:11:47;;;;;;;4.93;3.63;;;-1.10;99.90;;;;;;5064887;28;20271;-74
2024/01/19 04:14:16;;;;;;;8.67;4.87;;;-1.00;99.90;;;;;;5063523;28;20484;-75
2024/01/19 04:16:43;;;;;;;10.18;6.82;;;-1.10;99.90;;;;;;5059815;28;20526;-76
2024/01/19 04:19:10;;;;;;;8.87;6.07;;;-1.10;99.90;;;;;;5055471;28;20202;-75
2024/01/19 04:21:37;;;;;;;5.07;4.63;;;-1.10;99.90;;;;;;5058948;28;20550;-76
2024/01/19 04:24:04;;;;;;;8.32;5.35;;;-1.20;99.90;;;;;;5051556;28;20657;-77
2024/01/19 04:26:32;;;;;;;6.00;4.93;;;-1.10;99.90;;;;;;5063481;28;20194;-75
2024/01/19 04:28:59;;;;;;;6.87;4.80;;;-1.10;99.90;;;;;;5068798;28;20484;-74
2024/01/19 04:31:26;;;;;;;8.68;5.85;;;-1.10;99.90;;;;;;5064442;28;20529;-74
2024/01/19 04:33:54;;;;;;;11.30;5.17;;;-1.10;99.90;;;;;;5062500;28;20229;-74
2024/01/19 04:36:21;;;;;;;9.80;6.17;;;-1.10;99.90;;;;;;5064607;28;20918;-75
2024/01/19 04:38:51;;;;;;;5.20;4.25;;;-1.10;99.90;;;;;;5054737;28;20956;-77
2024/01/19 04:41:18;;;;;;;12.23;6.20;;;-1.10;99.90;;;;;;5063210;28;20944;-75
2024/01/19 04:43:46;;;;;;;10.23;6.53;;;-1.10;99.90;;;;;;5055216;28;20502;-77
2024/01/19 04:46:13;;;;;;;7.03;5.17;;;-1.10;99.90;;;;;;5056803;28;20295;-72
2024/01/19 04:48:40;;;;;;;10.13;5.28;;;-1.10;99.90;;;;;;5063243;28;20529;-73
2024/01/19 04:51:07;;;;;;;10.52;5.53;;;-1.10;99.90;;;;;;5066891;28;20902;-76
2024/01/19 04:53:34;;;;;;;9.40;5.57;;;-1.10;99.90;;;;;;5054137;28;20243;-75
2024/01/19 04:56:05;;;;;;;6.20;4.00;;;-1.20;99.90;;;;;;5067974;28;20225;-74
2024/01/19 04:58:32;;;;;;;8.63;6.03;;;-1.20;99.90;;;;;;5054916;28;20565;-74
2024/01/19 05:01:01;;;;;;;7.05;5.38;;;-1.20;99.90;;;;;;5069911;28;20613;-75
2024/01/19 05:03:27;;;;;;;8.10;4.90;;;-1.30;99.90;;;;;;5071132;28;20271;-74
2024/01/19 05:05:54;;;;;;;7.20;5.37;;;-1.20;99.90;;;;;;5067099;28;20938;-74
2024/01/19 05:08:21;;;;;;;8.98;5.50;;;-1.20;99.90;;;;;;5066034;28;20512;-74
2024/01/19 05:10:48;;;;;;;8.63;4.27;;;-1.30;99.90;;;;;;5062209;28;20198;-73
2024/01/19 05:13:15;;;;;;;8.60;5.82;;;-1.40;99.90;;;;;;5064380;28;20463;-75
2024/01/19 05:15:43;;;;;;;8.70;4.87;;;-1.30;99.90;;;;;;5054153;28;20232;-76
2024/01/19 05:18:11;;;;;;;6.78;6.05;;;-1.30;99.90;;;;;;5056362;28;21106;-74
2024/01/19 05:20:39;;;;;;;7.30;5.03;;;-1.30;99.90;;;;;;5059343;28;20275;-74
2024/01/19 05:23:06;;;;;;;8.67;4.63;;;-1.40;99.90;;;;;;5054834;28;20870;-75
2024/01/19 05:25:33;;;;;;;4.20;3.80;;;-1.40;99.90;;;;;;5058462;28;20550;-74
2024/01/19 05:28:00;;;;;;;5.43;3.93;;;-1.40;99.90;;;;;;5056504;28;20483;-73
2024/01/19 05:30:27;;;;;;;8.07;4.97;;;-1.40;99.90;;;;;;5056978;28;21201;-75
2024/01/19 05:32:54;;;;;;;5.72;4.70;;;-1.40;99.90;;;;;;5066348;28;20455;-74
2024/01/19 05:35:22;;;;;;;9.70;4.70;;;-1.40;99.90;;;;;;5064161;28;20560;-77
2024/01/19 05:37:49;;;;;;;3.40;2.80;;;-1.40;99.90;;;;;;5062557;28;20532;-76
2024/01/19 05:40:16;;;;;;;7.10;4.07;;;-1.50;99.90;;;;;;5064136;28;20512;-76
2024/01/19 05:42:43;;;;;;;4.30;3.63;;;-1.50;99.90;;;;;;5063268;28;20460;-75
2024/01/19 05:45:10;;;;;;;5.40;3.85;;;-1.60;99.90;;;;;;5059503;28;20464;-76
2024/01/19 05:47:37;;;;;;;4.97;2.50;;;-1.60;99.90;;;;;;5052899;28;20259;-77
2024/01/19 05:50:05;;;;;;;4.73;3.60;;;-1.60;99.90;;;;;;5063879;28;20811;-77
2024/01/19 05:52:33;;;;;;;3.55;3.20;;;-1.60;99.90;;;;;;5057147;28;21213;-76
2024/01/19 05:55:00;;;;;;;6.68;4.35;;;-1.70;99.90;;;;;;5055471;28;20582;-75
2024/01/19 05:57:27;;;;;;;6.25;4.03;;;-1.70;99.90;;;;;;5053634;28;20251;-76
2024/01/19 05:59:54;;;;;;;4.65;3.40;;;-1.70;99.90;;;;;;5065120;28;20208;-78
2024/01/19 06:02:21;;;;;;;6.40;3.80;;;-1.70;99.90;;;;;;5052804;28;20206;-75
2024/01/19 06:04:48;;;;;;;7.03;4.15;;;-1.60;99.90;;;;;;5053946;28;20501;-76
2024/01/19 06:07:15;;;;;;;7.40;3.55;;;-1.60;99.90;;;;;;5060430;28;20228;-75
2024/01/19 06:09:43;;;;;;;4.85;2.88;;;-1.60;99.90;;;;;;5060283;28;20818;-77
2024/01/19 06:12:10;;;;;;;5.97;3.13;;;-1.70;99.90;;;;;;5062899;28;20209;-75
2024/01/19 06:14:37;;;;;;;7.05;4.57;;;-1.70;99.90;;;;;;5065722;28;20197;-76
2024/01/19 06:17:05;;;;;;;7.55;4.55;;;-1.70;99.90;;;;;;5065399;28;20217;-76
2024/01/19 06:19:32;;;;;;;6.50;3.63;;;-1.70;99.90;;;;;;5060850;28;20213;-76
2024/01/19 06:21:58;;;;;;;9.82;3.58;;;-1.70;99.90;;;;;;5060613;28;20198;-76
2024/01/19 06:24:25;;;;;;;3.70;2.87;;;-1.70;99.90;;;;;;5063239;28;20529;-77
2024/01/19 06:26:53;;;;;;;5.95;3.80;;;-1.70;99.90;;;;;;5061255;28;20549;-78
2024/01/19 06:29:20;;;;;;;8.90;4.75;;;-1.70;99.90;;;;;;5052160;28;20317;-75
2024/01/19 06:31:48;;;;;;;5.60;3.78;;;-1.70;99.90;;;;;;5064325;28;20251;-75
2024/01/19 06:34:16;;;;;;;8.77;4.10;;;-1.60;99.90;;;;;;5060511;28;20273;-75
2024/01/19 06:36:44;;;;;;;6.05;4.50;;;-1.60;99.90;;;;;;5063553;28;20205;-75
2024/01/19 06:39:11;;;;;;;4.85;2.97;;;-1.60;99.90;;;;;;5052329;28;20292;-75
2024/01/19 06:41:42;;;;;;;7.85;3.40;;;-1.70;99.90;;;;;;5055834;28;20210;-75
2024/01/19 06:44:11;;;;;;;5.97;4.00;;;-1.60;99.90;;;;;;5058879;28;20699;-75
2024/01/19 06:46:38;;;;;;;5.05;3.17;;;-1.70;99.90;;;;;;5057069;28;20197;-75
2024/01/19 06:49:05;;;;;;;4.10;2.65;;;-1.70;99.90;;;;;;5061983;28;20218;-81
2024/01/19 06:51:32;;;;;;;10.10;3.45;;;-1.60;99.90;;;;;;5064696;28;20664;-77
2024/01/19 06:53:59;;;;;;;5.45;3.70;;;-1.60;99.90;;;;;;5045999;28;20198;-75
2024/01/19 06:56:26;;;;;;;4.95;4.30;;;-1.50;99.90;;;;;;5057272;28;20217;-77
2024/01/19 06:58:54;;;;;;;3.60;3.15;;;-1.60;99.90;;;;;;5051759;28;20274;-76
2024/01/19 07:01:23;;;;;;;4.72;3.22;;;-1.60;99.90;;;;;;5059265;28;20205;-75
2024/01/19 07:03:50;;;;;;;5.20;4.10;;;-1.50;99.90;;;;;;5050279;28;20705;-76
2024/01/19 07:06:17;;;;;;;5.50;3.08;;;-1.50;99.90;;;;;;5058380;28;20255;-76
2024/01/19 07:08:45;;;;;;;3.65;2.78;;;-1.50;99.90;;;;;;5059976;28;20274;-75
2024/01/19 07:11:12;;;;;;;9.40;2.95;;;-1.50;99.90;;;;;;5062647;28;20189;-76
2024/01/19 07:13:39;;;;;;;4.22;2.92;;;-1.40;99.90;;;;;;5052986;28;20271;-75
2024/01/19 07:16:08;;;;;;;5.87;3.57;;;-1.40;99.90;;;;;;5052998;28;20194;-76
2024/01/19 07:18:37;;;;;;;7.75;4.47;;;-1.30;99.90;;;;;;5055924;28;20448;-76
2024/01/19 07:21:04;;;;;;;4.80;3.43;;;-1.20;99.90;;;;;;5055142;28;20213;-77
2024/01/19 07:23:31;;;;;;;4.33;2.97;;;-1.20;99.90;;;;;;5059019;28;20526;-77
2024/01/19 07:25:58;;;;;;;8.50;4.50;;;-1.10;99.90;;;;;;5059947;28;20546;-77
2024/01/19 07:28:25;;;;;;;5.60;4.57;;;-1.10;99.90;;;;;;5063461;28;20533;-78
2024/01/19 07:30:52;;;;;;;8.03;5.23;;;-1.10;99.90;;;;;;5056593;28;20986;-78
2024/01/19 07:33:19;;;;;;;10.10;5.37;;;-1.00;99.90;;;;;;5061920;28;20563;-79
2024/01/19 07:35:47;;;;;;;7.77;4.40;;;-1.00;99.90;;;;;;5064049;28;20505;-79
2024/01/19 07:38:14;;;;;;;7.70;5.57;;;-1.10;99.90;;;;;;5054286;28;20555;-79
2024/01/19 07:40:41;;;;;;;7.90;5.17;;;-1.00;99.90;;;;;;5065713;28;20489;-79
2024/01/19 07:43:09;;;;;;;6.90;4.80;;;-1.00;99.90;;;;;;5054553;28;20888;-79
2024/01/19 07:45:37;;;;;;;5.03;4.60;;;-1.00;99.90;;;;;;5061859;28;20459;-80
2024/01/19 07:48:04;;;;;;;7.83;5.70;;;-1.00;99.90;;;;;;5059423;28;20198;-79
2024/01/19 07:50:31;;;;;;;7.40;5.23;;;-0.90;99.90;;;;;;5061196;28;20537;-79
2024/01/19 07:52:59;;;;;;;7.33;5.43;;;-0.90;99.90;;;;;;5050195;28;20445;-80
2024/01/19 07:55:26;;;;;;;8.70;7.30;;;-0.90;99.90;;;;;;5057512;28;20526;-79
2024/01/19 07:57:53;;;;;;;11.77;7.87;;;-0.80;99.90;;;;;;5056606;28;20983;-79
2024/01/19 08:00:20;;;;;;;10.57;6.90;;;-0.80;99.90;;;;;;5058253;28;20533;-79
2024/01/19 08:02:48;;;;;;;8.57;6.18;;;-0.80;99.90;;;;;;5056815;28;20975;-79
2024/01/19 08:05:15;;;;;;;9.37;6.43;;;-0.60;99.90;;;;;;5060608;28;20660;-79
2024/01/19 08:07:42;;;;;;;9.47;6.47;;;-0.60;99.90;;;;;;5052750;28;20539;-80
2024/01/19 08:10:11;;;;;;;11.68;7.72;;;-0.50;99.90;;;;;;5057793;28;20536;-78
2024/01/19 08:12:38;;;;;;;12.63;8.83;;;-0.50;99.90;;;;;;5058492;28;20208;-80
2024/01/19 08:15:07;;;;;;;16.50;8.73;;;-0.50;99.90;;;;;;5056819;28;20476;-79
2024/01/19 08:17:34;;;;;;;10.10;7.20;;;-0.40;99.90;;;;;;5060184;28;20455;-79
2024/01/19 08:20:01;;;;;;;10.93;8.70;;;-0.50;99.90;;;;;;5069397;28;21025;-80
2024/01/19 08:22:28;;;;;;;9.67;8.33;;;-0.50;99.90;;;;;;5061045;28;20460;-80
2024/01/19 08:24:55;;;;;;;11.93;7.73;;;-0.40;99.90;;;;;;5057312;28;20898;-79
2024/01/19 08:27:23;;;;;;;11.03;6.60;;;-0.40;99.90;;;;;;5064616;28;20672;-78
2024/01/19 08:29:50;;;;;;;10.23;6.63;;;-0.40;99.90;;;;;;5051836;28;20484;-80
2024/01/19 08:32:17;;;;;;;9.43;5.60;;;-0.50;99.90;;;;;;5056439;28;20541;-79
2024/01/19 08:34:45;;;;;;;7.97;5.30;;;-0.40;99.90;;;;;;5062127;28;20456;-80
2024/01/19 08:37:13;;;;;;;7.53;5.80;;;-0.40;99.90;;;;;;5061060;28;20509;-79
2024/01/19 08:39:39;;;;;;;13.45;5.43;;;-0.40;99.90;;;;;;5054052;28;21135;-79
2024/01/19 08:42:07;;;;;;;8.13;5.93;;;-0.50;99.90;;;;;;5064544;28;20676;-79
2024/01/19 08:44:35;;;;;;;5.47;4.85;;;-0.50;99.90;;;;;;5067177;28;20439;-80
2024/01/19 08:47:02;;;;;;;8.23;5.07;;;-0.50;99.90;;;;;;5064935;28;20246;-78
2024/01/19 08:49:29;;;;;;;8.00;5.80;;;-0.50;99.90;;;;;;5057332;28;20307;-77
2024/01/19 08:51:56;;;;;;;6.33;4.20;;;-0.60;99.90;;;;;;5057782;28;20202;-80
2024/01/19 08:54:23;;;;;;;3.80;3.37;;;-0.60;99.90;;;;;;5065320;28;20497;-81
2024/01/19 08:56:50;;;;;;;7.33;4.87;;;-0.50;99.90;;;;;;5054984;28;20992;-81
2024/01/19 08:59:18;;;;;;;5.93;4.32;;;-0.40;99.90;;;;;;5052594;28;20743;-83
2024/01/19 09:01:46;;;;;;;5.83;3.90;;;-0.50;99.90;;;;;;5058447;28;20204;-82
2024/01/19 09:04:13;;;;;;;4.50;3.90;;;-0.50;99.90;;;;;;5055205;28;20786;-84
2024/01/19 09:06:40;;;;;;;7.70;5.23;;;-0.40;99.90;;;;;;5054626;28;20209;-80
2024/01/19 09:09:08;;;;;;;4.67;3.87;;;-0.40;99.90;;;;;;5049016;28;20486;-83
2024/01/19 09:11:35;;;;;;;10.00;4.57;;;-0.40;99.90;;;;;;5062189;28;20459;-86
2024/01/19 09:14:02;;;;;;;5.03;4.53;;;-0.30;99.90;;;;;;5067905;28;21059;-82
2024/01/19 09:16:29;;;;;;;6.90;3.40;;;-0.40;99.90;;;;;;5066507;28;20501;-78
2024/01/19 09:18:58;;;;;;;7.63;5.07;;;-0.40;99.90;;;;;;5057964;28;20504;-76
2024/01/19 09:21:25;;;;;;;6.20;4.10;;;-0.50;99.90;;;;;;5055470;28;21005;-82
2024/01/19 09:23:53;;;;;;;6.83;4.57;;;-0.50;99.90;;;;;;5056072;28;20559;-77
2024/01/19 09:26:20;;;;;;;5.32;3.42;;;-0.40;99.90;;;;;;5049614;28;20915;-79
2024/01/19 09:28:49;;;;;;;9.83;4.27;;;-0.30;99.90;;;;;;5058359;28;20221;-78
2024/01/19 09:31:16;;;;;;;5.73;4.67;;;-0.30;99.90;;;;;;5051266;28;20539;-78
2024/01/19 09:33:44;;;;;;;5.10;4.37;;;-0.20;99.90;;;;;;5061186;28;20452;-78
2024/01/19 09:36:13;;;;;;;6.43;4.37;;;-0.20;99.90;;;;;;5062336;28;20472;-78
2024/01/19 09:38:40;;;;;;;5.10;3.03;;;-0.10;99.90;;;;;;5062836;28;20448;-78
2024/01/19 09:41:20;;;;;;;8.70;5.87;;;0.00;99.90;;;;;;5064461;28;20479;-78
2024/01/19 09:43:49;;;;;;;5.00;4.43;;;0.10;99.90;;;;;;5067143;28;20449;-78
2024/01/19 09:46:20;;;;;;;8.00;4.50;;;0.10;99.90;;;;;;5063519;28;20509;-84
2024/01/19 09:49:12;;;;;;;6.37;4.07;;;0.10;99.90;;;;;;5053869;28;20534;-78
2024/01/19 09:51:47;;;;;;;3.80;3.50;;;0.00;99.90;;;;;;5056998;28;20452;-77
2024/01/19 09:54:24;;;;;;;4.07;3.70;;;0.00;99.90;;;;;;5062938;28;20533;-79
2024/01/19 09:56:51;;;;;;;7.00;5.00;;;0.00;99.90;;;;;;5056788;28;20497;-76
2024/01/19 09:59:20;;;;;;;5.40;3.90;;;-0.10;99.90;;;;;;5062192;28;20769;-77
2024/01/19 10:01:48;;;;;;;6.40;4.50;;;0.00;99.90;;;;;;5059810;28;20467;-76
2024/01/19 10:04:18;;;;;;;5.80;4.33;;;0.10;99.90;;;;;;5059393;28;20479;-77
2024/01/19 10:06:47;;;;;;;8.10;4.35;;;0.00;99.90;;;;;;5056842;28;20494;-76
2024/01/19 10:09:14;;;;;;;5.65;4.18;;;0.10;99.90;;;;;;5062028;28;20567;-76
2024/01/19 10:11:42;;;;;;;4.85;3.97;;;0.10;99.90;;;;;;5060871;28;20208;-76
2024/01/19 10:14:09;;;;;;;5.93;4.37;;;0.10;99.90;;;;;;5057904;28;20226;-76
2024/01/19 10:16:37;;;;;;;4.50;4.05;;;0.10;99.90;;;;;;5058237;28;21255;-75
2024/01/19 10:19:04;;;;;;;5.38;3.60;;;0.00;99.90;;;;;;5054910;28;20198;-77
2024/01/19 10:21:31;;;;;;;4.68;3.40;;;-0.10;99.90;;;;;;5063021;28;20200;-76
2024/01/19 10:24:10;;;;;;;3.50;3.20;;;-0.20;99.90;;;;;;5057524;28;20198;-77
2024/01/19 10:26:38;;;;;;;4.55;3.13;;;-0.20;99.90;;;;;;5064424;28;20201;-76
2024/01/19 10:29:10;;;;;;;4.38;3.63;;;-0.30;99.90;;;;;;5058793;28;20198;-76
2024/01/19 10:31:37;;;;;;;3.15;2.85;;;-0.20;99.90;;;;;;5065569;28;20627;-76
2024/01/19 10:34:06;;;;;;;3.78;3.35;;;-0.50;99.90;;;;;;5061117;28;20194;-76
2024/01/19 10:36:39;;;;;;;3.95;2.40;;;-0.70;99.90;;;;;;5062433;28;20197;-77
2024/01/19 10:39:23;;;;;;;4.60;3.25;;;-0.80;99.90;;;;;;5053114;28;20221;-76
2024/01/19 10:41:50;;;;;;;4.47;3.38;;;-0.80;99.90;;;;;;5047711;28;20198;-76
2024/01/19 10:44:19;;;;;;;3.72;2.88;;;-0.70;99.90;;;;;;5054171;28;20209;-77
2024/01/19 10:46:46;;;;;;;4.80;3.83;;;-0.60;99.90;;;;;;5046915;28;20204;-77
2024/01/19 10:49:15;;;;;;;14.02;4.13;;;-0.60;99.90;;;;;;5055634;28;20436;-77
2024/01/19 10:51:44;;;;;;;3.97;2.63;;;-0.50;99.90;;;;;;5066288;28;20310;-75
2024/01/19 10:54:16;;;;;;;2.93;2.67;;;-0.50;99.90;;;;;;5064675;28;21001;-76
2024/01/19 10:56:45;;;;;;;5.70;3.63;;;-0.60;99.90;;;;;;5063121;28;20456;-89
2024/01/19 10:59:14;;;;;;;4.63;4.17;;;-0.60;99.90;;;;;;5052732;28;20555;-81
2024/01/19 11:01:42;;;;;;;5.55;4.60;;;-0.50;99.90;;;;;;5061373;28;20505;-81
2024/01/19 11:04:10;;;;;;;9.20;6.30;;;-0.40;99.90;;;;;;5065099;28;20198;-81
2024/01/19 11:06:38;;;;;;;4.95;4.35;;;-0.40;99.90;;;;;;5062378;28;20835;-81
2024/01/19 11:09:06;;;;;;;5.10;3.53;;;-0.30;99.90;;;;;;5058075;28;20263;-82
2024/01/19 11:11:39;;;;;;;9.63;8.30;;;-0.20;99.90;;;;;;5060910;28;20213;-81
2024/01/19 11:14:09;;;;;;;4.40;3.72;;;-0.20;99.90;;;;;;5066629;28;20193;-81
2024/01/19 11:16:43;;;;;;;5.80;3.70;;;-0.20;99.90;;;;;;5069999;28;20205;-81
2024/01/19 11:19:10;;;;;;;4.00;3.60;;;-0.20;99.90;;;;;;5055964;28;20276;-81
2024/01/19 11:21:39;;;;;;;2.60;2.40;;;0.00;99.90;;;;;;5065030;28;20544;-81
2024/01/19 11:24:08;;;;;;;5.50;3.40;;;0.00;99.90;;;;;;5052722;28;20267;-81
2024/01/19 11:26:40;;;;;;;10.75;6.50;;;0.20;99.90;;;;;;5065160;28;20202;-82
2024/01/19 11:29:16;;;;;;;7.27;4.73;;;0.40;99.90;;;;;;5068566;28;20778;-81
2024/01/19 11:31:45;;;;;;;5.20;3.83;;;0.50;99.90;;;;;;5062348;28;20482;-80
2024/01/19 11:34:45;;;;;;;5.75;3.63;;;0.50;99.90;;;;;;5073965;28;20530;-77
2024/01/19 11:37:40;;;;;;;4.27;3.67;;;0.50;99.90;;;;;;5051904;28;20209;-80
2024/01/19 11:40:08;;;;;;;7.37;4.00;;;0.40;99.90;;;;;;5060527;28;20499;-76
2024/01/19 11:42:47;;;;;;;8.63;4.07;;;0.30;99.90;;;;;;5062909;28;20501;-76
2024/01/19 11:45:43;;;;;;;3.13;2.53;;;0.10;99.90;;;;;;5067707;28;20547;-76
2024/01/19 11:48:11;;;;;;;5.00;4.13;;;-0.10;99.90;;;;;;5031650;28;20449;-78
2024/01/19 11:50:43;;;;;;;5.00;3.77;;;0.00;99.90;;;;;;5062000;28;20280;-76
2024/01/19 11:53:10;;;;;;;6.30;3.83;;;-0.10;99.90;;;;;;5058938;28;20484;-76
2024/01/19 11:55:47;;;;;;;8.33;5.33;;;-0.10;99.90;;;;;;5063385;28;20285;-76
2024/01/19 11:58:31;;;;;;;7.17;4.47;;;-0.10;99.90;;;;;;5064846;28;20459;-76
2024/01/19 12:01:01;;;;;;;5.97;4.20;;;-0.30;99.90;;;;;;5057164;28;20470;-75
2024/01/19 12:03:29;;;;;;;10.20;5.27;;;-0.40;99.90;;;;;;5064746;28;20440;-76
2024/01/19 12:06:00;;;;;;;4.33;3.93;;;-0.40;99.90;;;;;;5057555;28;20453;-77
2024/01/19 12:08:28;;;;;;;4.63;3.77;;;-0.30;99.90;;;;;;5057384;28;20445;-78
2024/01/19 12:11:06;;;;;;;11.10;5.85;;;-0.10;99.90;;;;;;5067195;28;20479;-79
2024/01/19 12:13:33;;;;;;;6.63;5.97;;;-0.30;99.90;;;;;;5061352;28;20718;-76
2024/01/19 12:16:04;;;;;;;6.95;4.00;;;-0.40;99.90;;;;;;5052368;28;20848;-77
2024/01/19 12:18:32;;;;;;;12.77;5.57;;;-0.30;99.90;;;;;;5066922;28;20580;-77
2024/01/19 12:21:00;;;;;;;6.40;5.00;;;-0.20;99.90;;;;;;5063840;28;20483;-77
2024/01/19 12:23:29;;;;;;;9.73;5.97;;;-0.10;99.90;;;;;;5068145;28;20447;-78
2024/01/19 12:26:01;;;;;;;12.93;6.93;;;-0.10;99.90;;;;;;5062970;28;20531;-78
2024/01/19 12:28:28;;;;;;;4.83;4.13;;;-0.20;99.90;;;;;;5063758;28;20471;-76
2024/01/19 12:30:56;;;;;;;6.60;4.90;;;-0.20;99.90;;;;;;5064168;28;20491;-77
2024/01/19 12:33:28;;;;;;;7.33;5.83;;;-0.20;99.90;;;;;;5059396;28;20502;-76
2024/01/19 12:36:17;;;;;;;8.10;4.93;;;0.00;99.90;;;;;;5051745;28;20456;-76
2024/01/19 12:38:44;;;;;;;7.27;5.83;;;0.00;99.90;;;;;;5062518;28;20459;-78
2024/01/19 12:41:15;;;;;;;9.10;7.53;;;-0.10;99.90;;;;;;5064058;28;20444;-78
2024/01/19 12:43:43;;;;;;;6.00;5.40;;;-0.30;99.90;;;;;;5057105;28;20523;-76
2024/01/19 12:46:12;;;;;;;6.80;5.40;;;-0.10;99.90;;;;;;5053269;28;20278;-75
2024/01/19 12:48:40;;;;;;;5.30;4.80;;;-0.10;99.90;;;;;;5052688;28;20466;-76
2024/01/19 12:51:07;;;;;;;15.20;5.50;;;-0.10;99.90;;;;;;5055854;28;20488;-77